Livermore Municipal Airport

About
Name: Livermore Municipal Airport
Identifier:  LVK/KLVK
Owner:  City of Livermore
Public/Private:  Public
Local Time:  18. Sep 12:05 PDT
Description: Livermore Municipal Airport is three miles west of Livermore, California, in Alameda County, California. The Federal Aviation Administration National Plan of Integrated Airport Systems for 2017–2021 categorized it as a regional reliver facility.
Source: Wikipedia
Location
Statistics
Flights per Day:
0 flights
Distance: 490km (304mi)
Flights delayed:
-300% (0 flights per day delayed)
Delay Average: 9 minutes
Current Weather
 20 C (Humidity: 77%)
  6kt (11km/h / 6mph) from 210°
  Few clouds at 1,900 feet (579 meter)
  Overcast at 5,000 feet (1,524 meter)
  16km (10 mi.)
 METAR KLVK 181853Z 21006KT 10SM FEW019 OVC050 20/16 A2996 RMK AO2 RAB23E41 SLP144 P0000 T02000156

Current Delays

Departures
N/A
Arrivals
N/A

Destinations

Top Destinations
Airport Flights
per week
Seats
per week
  Van Nuys (VNY) 0 - 0 0

Airlines & Planes

Top Airlines
Airline Flights
per Day
Seats
per Day
Gama Aviation 0 -
Top Plane Types
Model Flights Seats
Beech B300 Super King Air 350 0.0/day - 0